Time;durP1;ratioP1;P1;durP2;ratioP2;P2;SDS_P1;SDS_P2;PMS_P1;PMS_P2;Temp;Humidity;BMP_temperature;BMP_pressure;BME280_temperature;BME280_humidity;BME280_pressure;Samples;Min_cycle;Max_cycle;Signal;HPM_P1;HPM_P2
2021/05/18 00:01:19;;;;;;;23.85;8.73;;;13.50;98.80;;;;;;5084808;28;20421;-71
2021/05/18 00:03:46;;;;;;;20.52;8.88;;;13.60;98.40;;;;;;5087420;28;20478;-70
2021/05/18 00:06:12;;;;;;;22.83;9.45;;;13.70;98.10;;;;;;5085409;28;20526;-70
2021/05/18 00:14:05;;;;;;;26.52;9.40;;;13.80;97.40;;;;;;5083571;28;20433;-71
2021/05/18 00:16:31;;;;;;;19.60;8.80;;;13.90;97.30;;;;;;5085736;28;20482;-70
2021/05/18 00:18:58;;;;;;;23.33;8.98;;;13.90;97.30;;;;;;5085726;28;20921;-70
2021/05/18 00:21:24;;;;;;;20.55;9.15;;;13.90;97.10;;;;;;5086259;28;20758;-70
2021/05/18 00:23:51;;;;;;;23.95;9.23;;;14.00;97.00;;;;;;5085151;28;20428;-70
2021/05/18 00:26:18;;;;;;;24.53;10.07;;;14.00;97.40;;;;;;5085734;28;20440;-70
2021/05/18 00:28:44;;;;;;;21.63;9.48;;;14.00;97.00;;;;;;5086151;28;20901;-70
2021/05/18 00:31:11;;;;;;;24.05;10.05;;;14.00;96.90;;;;;;5098603;28;20423;-70
2021/05/18 00:33:41;;;;;;;25.50;10.40;;;14.00;96.90;;;;;;5067881;28;20854;-71
2021/05/18 00:36:08;;;;;;;24.05;9.88;;;14.10;96.90;;;;;;5082714;28;20423;-70
2021/05/18 00:38:35;;;;;;;20.80;10.07;;;14.10;96.90;;;;;;5080858;28;20417;-70
2021/05/18 00:41:02;;;;;;;22.50;9.88;;;14.10;97.00;;;;;;5081493;28;20426;-70
2021/05/18 00:43:29;;;;;;;25.30;10.03;;;14.20;97.00;;;;;;5082631;28;20428;-70
2021/05/18 00:45:57;;;;;;;25.95;10.68;;;14.20;96.80;;;;;;5080214;28;20430;-70
2021/05/18 00:48:24;;;;;;;21.83;10.00;;;14.20;96.60;;;;;;5088348;28;20530;-71
2021/05/18 00:50:54;;;;;;;24.40;10.10;;;14.20;96.60;;;;;;5095535;28;20852;-70
2021/05/18 00:53:22;;;;;;;26.30;10.48;;;14.20;96.60;;;;;;5063697;28;20459;-71
2021/05/18 00:55:58;;;;;;;27.10;10.70;;;14.20;96.50;;;;;;5062905;28;20414;-71
2021/05/18 00:58:33;;;;;;;28.60;11.10;;;14.20;96.50;;;;;;5083965;28;20479;-70
2021/05/18 01:01:02;;;;;;;25.38;11.05;;;14.20;96.50;;;;;;5099469;28;20426;-70
2021/05/18 01:03:29;;;;;;;27.13;11.60;;;14.30;96.50;;;;;;5087159;28;20776;-70
2021/05/18 01:08:42;;;;;;;26.17;10.88;;;14.30;96.30;;;;;;5082831;28;20414;-71
2021/05/18 01:11:09;;;;;;;26.35;10.35;;;14.30;96.20;;;;;;5083344;28;20447;-70
2021/05/18 01:13:37;;;;;;;25.77;10.23;;;14.30;96.10;;;;;;5085062;28;20422;-70
2021/05/18 01:16:06;;;;;;;24.05;10.07;;;14.30;96.20;;;;;;5083767;28;20430;-70
2021/05/18 01:18:37;;;;;;;27.70;10.15;;;14.30;96.60;;;;;;5066560;28;20471;-70
2021/05/18 01:21:05;;;;;;;26.67;10.18;;;14.30;96.20;;;;;;5084438;28;20422;-71
2021/05/18 01:23:33;;;;;;;31.58;10.82;;;14.30;96.20;;;;;;5084985;28;20418;-70
2021/05/18 01:25:59;;;;;;;26.60;10.33;;;14.30;96.30;;;;;;5083904;28;20422;-70
2021/05/18 01:28:27;;;;;;;30.80;10.85;;;14.30;96.30;;;;;;5097224;28;20449;-70
2021/05/18 01:30:54;;;;;;;22.67;10.02;;;14.30;96.30;;;;;;5063904;28;20467;-71
2021/05/18 01:33:20;;;;;;;24.88;10.55;;;14.40;96.50;;;;;;5099770;28;20433;-71
2021/05/18 01:35:48;;;;;;;28.58;11.57;;;14.40;96.60;;;;;;5101575;28;20505;-71
2021/05/18 01:38:19;;;;;;;25.30;11.05;;;14.40;96.50;;;;;;5066919;28;20471;-71
2021/05/18 01:43:30;;;;;;;29.98;11.27;;;14.30;96.70;;;;;;5081550;28;20924;-71
2021/05/18 01:45:57;;;;;;;29.23;11.20;;;14.30;96.80;;;;;;5084951;28;20414;-70
2021/05/18 01:48:24;;;;;;;28.00;12.10;;;14.30;96.80;;;;;;5083180;28;20440;-70
2021/05/18 01:50:50;;;;;;;28.45;12.40;;;14.30;96.90;;;;;;5066546;28;20473;-70
2021/05/18 01:53:19;;;;;;;27.05;13.02;;;14.30;97.10;;;;;;5084056;28;20486;-71
2021/05/18 01:56:00;;;;;;;29.73;13.47;;;14.30;97.10;;;;;;5065105;28;20884;-71
2021/05/18 01:58:26;;;;;;;28.77;14.02;;;14.30;96.90;;;;;;5084608;28;20523;-71
2021/05/18 02:01:23;;;;;;;35.63;16.38;;;14.30;97.00;;;;;;5065782;28;20466;-70
2021/05/18 02:03:50;;;;;;;40.28;17.92;;;14.30;98.60;;;;;;5102124;28;20482;-69
2021/05/18 02:06:17;;;;;;;41.03;18.42;;;14.20;99.70;;;;;;5098903;28;20466;-70
2021/05/18 02:08:46;;;;;;;38.20;18.27;;;14.20;99.90;;;;;;5085533;28;20424;-71
2021/05/18 02:11:23;;;;;;;40.03;18.63;;;14.10;99.90;;;;;;5083575;28;20936;-70
2021/05/18 02:13:52;;;;;;;41.30;18.98;;;14.00;99.90;;;;;;5064293;28;20426;-70
2021/05/18 02:16:32;;;;;;;40.15;19.23;;;14.00;99.90;;;;;;5097161;28;20509;-71
2021/05/18 02:19:12;;;;;;;38.60;19.90;;;13.90;99.90;;;;;;5099655;28;20439;-70
2021/05/18 02:22:12;;;;;;;37.50;19.30;;;13.90;99.90;;;;;;5068030;28;21116;-70
2021/05/18 02:25:00;;;;;;;41.95;20.08;;;13.80;99.90;;;;;;5101150;28;20421;-70
2021/05/18 02:27:39;;;;;;;46.47;20.90;;;13.80;99.90;;;;;;5067564;28;20502;-70
2021/05/18 02:30:07;;;;;;;42.72;19.77;;;13.80;99.90;;;;;;5085117;28;20433;-71
2021/05/18 02:32:36;;;;;;;40.78;19.27;;;13.70;99.90;;;;;;5098357;28;20427;-71
2021/05/18 02:35:12;;;;;;;41.90;19.67;;;13.70;99.90;;;;;;5099302;28;20790;-70
2021/05/18 02:37:39;;;;;;;40.00;19.57;;;13.70;99.90;;;;;;5083945;28;20820;-70
2021/05/18 02:40:10;;;;;;;42.33;21.15;;;13.70;99.90;;;;;;5101581;28;20425;-70
2021/05/18 02:42:37;;;;;;;41.20;20.25;;;13.70;99.90;;;;;;5067358;28;20493;-70
2021/05/18 02:45:10;;;;;;;43.58;20.17;;;13.80;99.90;;;;;;5066708;28;20920;-70
2021/05/18 02:50:21;;;;;;;36.08;18.98;;;13.80;99.90;;;;;;5065225;28;20409;-71
2021/05/18 02:52:48;;;;;;;43.38;20.27;;;13.90;99.90;;;;;;5082182;28;20914;-71
2021/05/18 02:55:24;;;;;;;35.17;19.30;;;13.90;99.90;;;;;;5098059;28;20439;-70
2021/05/18 02:57:52;;;;;;;35.63;19.10;;;13.90;99.90;;;;;;5081699;28;20510;-69
2021/05/18 03:00:22;;;;;;;40.30;19.85;;;13.90;99.90;;;;;;5082888;28;20803;-70
2021/05/18 03:02:50;;;;;;;38.85;19.70;;;13.90;99.90;;;;;;5081376;28;20430;-70
2021/05/18 03:05:17;;;;;;;43.05;20.23;;;13.90;99.90;;;;;;5065503;28;20951;-69
2021/05/18 03:07:45;;;;;;;35.15;19.17;;;14.00;99.90;;;;;;5063741;28;20513;-70
2021/05/18 03:10:13;;;;;;;38.92;19.60;;;14.00;99.90;;;;;;5085443;28;20422;-70
2021/05/18 03:12:40;;;;;;;38.22;19.50;;;14.00;99.90;;;;;;5080885;28;20446;-69
2021/05/18 03:15:07;;;;;;;37.38;19.50;;;14.00;99.90;;;;;;5081473;28;20434;-70
2021/05/18 03:17:35;;;;;;;39.17;20.05;;;14.00;99.90;;;;;;5096501;28;20422;-69
2021/05/18 03:20:03;;;;;;;39.25;20.48;;;14.00;99.90;;;;;;5099707;28;20778;-70
2021/05/18 03:22:29;;;;;;;37.77;19.97;;;14.10;99.90;;;;;;5077129;28;20424;-70
2021/05/18 03:24:56;;;;;;;39.20;21.40;;;14.10;99.90;;;;;;5080302;28;21429;-71
2021/05/18 03:27:24;;;;;;;43.40;22.57;;;14.10;99.90;;;;;;5083204;28;20418;-69
2021/05/18 03:29:52;;;;;;;40.72;21.95;;;14.10;99.90;;;;;;5084857;28;20436;-70
2021/05/18 03:35:03;;;;;;;35.03;19.77;;;14.10;99.90;;;;;;5082485;28;20422;-71
2021/05/18 03:37:38;;;;;;;37.35;21.70;;;14.10;99.90;;;;;;5084219;28;20421;-72
2021/05/18 03:40:09;;;;;;;29.48;17.83;;;14.10;99.90;;;;;;5086929;28;20769;-72
2021/05/18 03:42:38;;;;;;;32.57;17.17;;;14.00;99.90;;;;;;5086420;28;20429;-72
2021/05/18 03:45:13;;;;;;;28.45;14.70;;;14.00;99.90;;;;;;5071757;28;21010;-73
2021/05/18 03:53:29;;;;;;;29.67;16.98;;;13.90;99.90;;;;;;5083938;28;20421;-72
2021/05/18 03:58:56;;;;;;;24.88;14.32;;;13.90;99.90;;;;;;5087919;28;20987;-74
2021/05/18 04:04:15;;;;;;;22.57;13.30;;;13.90;99.90;;;;;;5083523;28;20430;-72
2021/05/18 04:12:16;;;;;;;23.20;12.75;;;13.80;99.90;;;;;;5078639;28;20423;-71
2021/05/18 04:17:41;;;;;;;24.38;13.23;;;13.70;99.90;;;;;;5049846;28;20815;-73
2021/05/18 04:20:18;;;;;;;21.17;13.13;;;13.70;99.90;;;;;;5087716;28;20770;-72
2021/05/18 04:23:10;;;;;;;20.70;12.43;;;13.70;99.90;;;;;;5101677;27;20571;-71
2021/05/18 04:25:55;;;;;;;24.77;14.88;;;13.70;99.90;;;;;;5069121;28;20797;-72
2021/05/18 04:39:41;;;;;;;26.17;17.00;;;13.80;99.90;;;;;;5084521;28;20415;-71
2021/05/18 04:50:49;;;;;;;25.33;15.52;;;13.90;99.90;;;;;;5085442;28;20474;-74
2021/05/18 04:53:21;;;;;;;23.27;14.53;;;13.90;99.90;;;;;;5083722;28;20443;-73
2021/05/18 05:01:19;;;;;;;24.98;17.85;;;13.90;99.90;;;;;;5066604;28;20944;-74
2021/05/18 05:04:00;;;;;;;28.50;17.83;;;13.90;99.90;;;;;;5086820;28;20434;-73
2021/05/18 05:06:33;;;;;;;27.95;16.23;;;13.90;99.90;;;;;;5085086;28;20988;-71
2021/05/18 05:09:11;;;;;;;26.73;16.17;;;13.90;99.90;;;;;;5083032;28;20426;-71
2021/05/18 05:14:24;;;;;;;30.08;21.10;;;13.90;99.90;;;;;;5070605;28;20412;-71
2021/05/18 05:16:52;;;;;;;34.13;22.83;;;13.90;99.90;;;;;;5084719;28;21041;-70
2021/05/18 05:19:19;;;;;;;36.40;23.10;;;13.90;99.90;;;;;;5069376;28;20421;-71
2021/05/18 05:21:46;;;;;;;32.13;20.60;;;13.90;99.90;;;;;;5083756;28;20432;-71
2021/05/18 05:24:13;;;;;;;29.27;19.50;;;13.90;99.90;;;;;;5083553;28;20445;-71
2021/05/18 05:26:41;;;;;;;37.83;23.17;;;13.90;99.90;;;;;;5080167;28;20477;-71
2021/05/18 05:29:08;;;;;;;34.25;20.80;;;13.90;99.90;;;;;;5085477;28;20426;-71
2021/05/18 05:31:36;;;;;;;28.52;17.60;;;13.90;99.90;;;;;;5099031;28;20613;-71
2021/05/18 05:34:03;;;;;;;25.85;16.25;;;13.90;99.90;;;;;;5079897;28;20419;-71
2021/05/18 05:36:29;;;;;;;27.40;17.42;;;13.90;99.90;;;;;;5083568;28;20418;-71
2021/05/18 05:39:03;;;;;;;29.58;19.20;;;13.80;99.90;;;;;;5084666;28;20426;-70
2021/05/18 05:41:30;;;;;;;32.13;21.40;;;13.80;99.90;;;;;;5066501;28;20933;-71
2021/05/18 05:43:57;;;;;;;35.00;23.65;;;13.80;99.90;;;;;;5085407;28;20777;-70
2021/05/18 05:46:23;;;;;;;31.43;21.30;;;13.80;99.90;;;;;;5081053;28;20433;-70
2021/05/18 05:48:53;;;;;;;35.90;23.50;;;13.80;99.90;;;;;;5085857;28;21106;-72
2021/05/18 05:51:24;;;;;;;35.88;23.48;;;13.80;99.90;;;;;;5088575;28;20504;-70
2021/05/18 05:53:51;;;;;;;37.80;23.10;;;13.80;99.90;;;;;;5087356;28;20428;-71
2021/05/18 05:56:19;;;;;;;34.38;21.33;;;13.80;99.90;;;;;;5088832;28;20897;-72
2021/05/18 05:58:46;;;;;;;32.83;19.80;;;13.80;99.90;;;;;;5084090;28;20437;-72
2021/05/18 06:01:12;;;;;;;30.65;19.63;;;13.80;99.90;;;;;;5084357;28;20416;-72
2021/05/18 06:03:40;;;;;;;26.98;16.63;;;13.80;99.90;;;;;;5097203;28;20957;-71
2021/05/18 06:06:06;;;;;;;22.02;13.55;;;13.80;99.90;;;;;;5088159;28;20889;-72
2021/05/18 06:08:37;;;;;;;19.83;13.18;;;13.80;99.90;;;;;;5085844;28;20547;-71
2021/05/18 06:11:08;;;;;;;21.27;12.15;;;13.80;99.90;;;;;;5069479;28;20422;-70
2021/05/18 06:35:50;;;;;;;17.52;8.93;;;14.00;99.90;;;;;;5067793;28;20562;-72
2021/05/18 06:41:13;;;;;;;16.02;8.30;;;14.10;99.90;;;;;;5087707;28;20986;-74
2021/05/18 06:43:53;;;;;;;12.77;7.80;;;14.10;99.90;;;;;;5085384;28;21245;-72
2021/05/18 06:46:23;;;;;;;10.60;6.93;;;14.20;99.70;;;;;;5083198;28;21238;-73
2021/05/18 06:48:57;;;;;;;12.38;7.80;;;14.20;98.80;;;;;;5068651;28;20556;-71
2021/05/18 06:51:24;;;;;;;13.55;7.93;;;14.20;98.80;;;;;;5086972;28;20437;-71
2021/05/18 06:53:51;;;;;;;12.77;7.73;;;14.20;98.80;;;;;;5085314;28;20500;-71
2021/05/18 06:56:18;;;;;;;13.43;8.75;;;14.20;98.50;;;;;;5087379;28;20421;-72
2021/05/18 07:01:29;;;;;;;11.20;6.70;;;14.20;97.20;;;;;;5042057;28;20475;-73
2021/05/18 07:03:59;;;;;;;11.47;7.60;;;14.20;97.00;;;;;;5086382;28;20448;-72
2021/05/18 07:06:40;;;;;;;11.10;6.55;;;14.30;97.30;;;;;;5086833;28;20903;-71
2021/05/18 07:09:07;;;;;;;10.60;6.90;;;14.30;97.60;;;;;;5085625;28;20424;-71
2021/05/18 07:11:33;;;;;;;11.30;6.53;;;14.40;97.00;;;;;;5086082;28;20800;-72
2021/05/18 07:14:00;;;;;;;9.60;6.40;;;14.50;96.80;;;;;;5087252;28;20466;-76
2021/05/18 07:16:28;;;;;;;11.48;6.25;;;14.50;96.40;;;;;;5086455;28;20513;-74
2021/05/18 07:18:54;;;;;;;12.77;5.85;;;14.70;97.00;;;;;;5085343;28;21904;-72
2021/05/18 07:21:21;;;;;;;10.43;6.00;;;14.70;96.10;;;;;;5085830;28;20542;-73
2021/05/18 07:23:48;;;;;;;10.13;6.07;;;14.80;96.00;;;;;;5086926;28;20923;-72
2021/05/18 07:26:14;;;;;;;12.25;6.50;;;14.80;95.50;;;;;;5088139;28;20418;-71
2021/05/18 07:28:41;;;;;;;11.27;6.57;;;14.80;95.70;;;;;;5086146;28;20450;-71
2021/05/18 07:31:07;;;;;;;9.60;6.32;;;14.90;96.10;;;;;;5076958;28;20529;-73
2021/05/18 07:33:34;;;;;;;7.15;5.88;;;14.90;95.80;;;;;;5073975;28;20913;-72
2021/05/18 07:36:07;;;;;;;9.77;5.85;;;14.90;95.40;;;;;;5078473;28;20426;-72
2021/05/18 07:38:34;;;;;;;11.13;6.25;;;15.00;95.00;;;;;;5080577;28;20421;-73
2021/05/18 07:41:00;;;;;;;11.05;5.85;;;15.00;95.50;;;;;;5079173;28;20421;-70
2021/05/18 07:43:27;;;;;;;13.35;5.82;;;15.00;95.20;;;;;;5081307;28;20437;-71
2021/05/18 07:45:55;;;;;;;9.85;5.70;;;15.10;94.50;;;;;;5082764;28;20421;-71
2021/05/18 07:48:26;;;;;;;9.77;6.10;;;15.10;95.10;;;;;;5065806;28;20864;-70
2021/05/18 07:51:02;;;;;;;10.90;6.50;;;15.10;94.70;;;;;;5082424;28;20426;-70
2021/05/18 07:59:20;;;;;;;9.77;5.45;;;15.10;94.90;;;;;;5083043;28;20414;-69
2021/05/18 08:07:17;;;;;;;11.57;6.03;;;15.00;94.40;;;;;;5080044;28;20962;-70
2021/05/18 08:09:45;;;;;;;12.45;6.30;;;15.10;94.30;;;;;;5082594;28;20478;-70
2021/05/18 08:12:12;;;;;;;12.07;6.53;;;15.10;94.80;;;;;;5080902;28;20449;-70
2021/05/18 08:14:41;;;;;;;13.02;6.25;;;15.10;94.70;;;;;;5083254;28;20827;-70
2021/05/18 08:17:14;;;;;;;6.38;4.15;;;15.10;94.60;;;;;;5081096;28;20826;-70
2021/05/18 09:44:50;;;;;;;13.38;7.60;;;16.10;94.10;;;;;;5043019;28;20420;-69
2021/05/18 10:35:47;;;;;;;16.40;10.25;;;16.70;90.30;;;;;;5082707;28;20958;-71
2021/05/18 10:38:20;;;;;;;16.50;9.70;;;16.70;90.90;;;;;;5065539;28;20451;-70
2021/05/18 10:40:48;;;;;;;14.88;8.93;;;16.70;90.30;;;;;;5084140;28;21027;-69
2021/05/18 10:43:23;;;;;;;14.15;8.43;;;16.70;90.60;;;;;;5083135;28;20421;-69
2021/05/18 10:46:10;;;;;;;14.90;7.88;;;16.80;89.60;;;;;;5085603;28;20968;-71
2021/05/18 10:49:00;;;;;;;11.40;6.80;;;16.90;88.90;;;;;;5083443;28;20441;-70
2021/05/18 10:51:31;;;;;;;11.38;7.05;;;16.90;87.10;;;;;;5083183;28;20931;-70
2021/05/18 10:54:29;;;;;;;11.33;6.80;;;16.90;87.20;;;;;;5067359;28;20433;-70
2021/05/18 10:57:20;;;;;;;12.80;7.57;;;16.90;86.40;;;;;;5085011;28;20544;-70
2021/05/18 10:59:55;;;;;;;13.98;7.53;;;17.00;86.70;;;;;;5062780;28;20422;-70
2021/05/18 11:02:25;;;;;;;11.65;6.47;;;17.10;86.30;;;;;;5081144;28;20443;-69
2021/05/18 11:04:53;;;;;;;10.15;6.63;;;17.10;86.10;;;;;;5082363;28;20679;-70
2021/05/18 11:07:22;;;;;;;11.93;6.55;;;17.20;84.90;;;;;;5083327;28;20914;-70
2021/05/18 11:09:50;;;;;;;13.73;7.20;;;17.30;85.80;;;;;;5084685;28;20474;-69
2021/05/18 11:12:19;;;;;;;11.82;6.72;;;17.40;85.60;;;;;;5083743;28;20906;-70
2021/05/18 11:14:50;;;;;;;12.95;6.57;;;17.40;84.60;;;;;;5082627;28;20510;-70
2021/05/18 11:17:25;;;;;;;10.60;6.43;;;17.40;83.20;;;;;;5082492;28;20421;-70
2021/05/18 11:19:59;;;;;;;11.77;7.00;;;17.30;83.70;;;;;;5082072;28;20898;-70
2021/05/18 11:25:11;;;;;;;10.23;6.80;;;17.40;83.90;;;;;;5096010;28;20961;-70
2021/05/18 11:27:38;;;;;;;13.82;7.63;;;17.50;82.70;;;;;;5084012;28;20429;-69
2021/05/18 11:30:07;;;;;;;8.73;6.00;;;17.50;83.20;;;;;;5083606;28;21046;-69
2021/05/18 11:32:34;;;;;;;10.43;6.03;;;17.50;81.70;;;;;;5082217;28;20475;-71
2021/05/18 11:35:03;;;;;;;12.63;7.30;;;17.40;81.40;;;;;;5084414;28;20905;-69
2021/05/18 11:37:31;;;;;;;11.05;7.10;;;17.30;83.40;;;;;;5082892;28;20846;-69
2021/05/18 11:40:14;;;;;;;10.47;7.37;;;17.30;83.00;;;;;;5083474;28;20425;-70
2021/05/18 11:42:40;;;;;;;11.52;7.35;;;17.30;84.20;;;;;;5081181;28;20437;-70
2021/05/18 11:45:10;;;;;;;13.17;7.60;;;17.40;83.50;;;;;;5083883;28;21142;-70
2021/05/18 11:47:37;;;;;;;12.77;6.78;;;17.40;84.00;;;;;;5082283;28;20434;-70
2021/05/18 11:50:05;;;;;;;12.98;7.28;;;17.50;84.70;;;;;;5083034;28;20893;-70
2021/05/18 11:52:37;;;;;;;12.95;7.10;;;17.60;82.70;;;;;;5083930;28;20923;-71
2021/05/18 11:55:23;;;;;;;10.40;6.63;;;17.60;82.60;;;;;;5084144;28;20432;-71
2021/05/18 11:57:52;;;;;;;11.37;6.73;;;17.70;83.00;;;;;;5080614;28;20444;-70
2021/05/18 12:00:23;;;;;;;12.23;6.85;;;17.80;81.90;;;;;;5083968;28;20434;-70
2021/05/18 12:03:01;;;;;;;13.73;6.97;;;17.80;80.40;;;;;;5085091;28;20457;-70
2021/05/18 12:05:28;;;;;;;9.00;5.43;;;17.90;81.00;;;;;;5089265;28;20445;-70
2021/05/18 12:07:55;;;;;;;12.50;6.40;;;18.00;80.20;;;;;;5087542;28;20433;-69
2021/05/18 12:10:30;;;;;;;12.80;6.13;;;18.10;79.20;;;;;;5085752;28;20425;-70
2021/05/18 12:12:56;;;;;;;10.85;6.55;;;18.10;79.10;;;;;;5085221;28;20955;-70
2021/05/18 12:15:23;;;;;;;9.90;5.70;;;18.30;79.30;;;;;;5086967;28;20762;-70
2021/05/18 12:17:52;;;;;;;13.18;6.90;;;18.40;77.80;;;;;;5086515;28;20429;-71
2021/05/18 12:20:19;;;;;;;11.85;6.40;;;18.50;79.10;;;;;;5085200;28;20425;-71
2021/05/18 12:22:47;;;;;;;13.80;6.57;;;18.60;77.60;;;;;;5087591;28;20436;-70
2021/05/18 12:25:29;;;;;;;10.32;6.15;;;18.60;75.90;;;;;;5085865;28;20429;-70
2021/05/18 12:27:56;;;;;;;11.63;6.07;;;18.60;76.30;;;;;;5086367;28;20434;-71
2021/05/18 12:30:34;;;;;;;10.70;5.90;;;18.60;76.70;;;;;;5085492;28;20416;-70
2021/05/18 12:33:01;;;;;;;10.70;5.38;;;18.50;75.70;;;;;;5085616;28;20789;-70
2021/05/18 12:35:27;;;;;;;11.60;6.07;;;18.50;75.60;;;;;;5070523;28;20470;-70
2021/05/18 12:37:55;;;;;;;11.75;6.13;;;18.60;76.70;;;;;;5084757;28;20456;-70
2021/05/18 12:40:30;;;;;;;11.43;5.30;;;18.60;77.70;;;;;;5067438;28;20428;-69
2021/05/18 12:43:09;;;;;;;12.55;5.90;;;18.80;78.60;;;;;;5085589;28;20793;-69
2021/05/18 12:45:37;;;;;;;10.48;5.82;;;19.10;76.00;;;;;;5084917;28;20426;-70
2021/05/18 12:48:04;;;;;;;11.80;5.95;;;19.30;74.50;;;;;;5086187;28;20891;-69
2021/05/18 12:50:43;;;;;;;12.57;5.60;;;19.40;73.60;;;;;;5085366;28;20447;-69
2021/05/18 12:53:26;;;;;;;11.35;5.50;;;19.40;72.80;;;;;;5084866;28;20449;-70
2021/05/18 12:55:54;;;;;;;10.65;5.35;;;19.40;72.20;;;;;;5084169;28;20801;-70
2021/05/18 12:58:28;;;;;;;10.43;5.70;;;19.40;72.80;;;;;;5083746;28;20417;-70
2021/05/18 13:01:05;;;;;;;11.85;5.40;;;19.40;71.80;;;;;;5085857;28;20421;-70
2021/05/18 13:03:32;;;;;;;10.87;5.50;;;19.50;72.80;;;;;;5084870;28;20426;-70
2021/05/18 13:05:58;;;;;;;10.77;5.17;;;19.50;71.80;;;;;;5086125;28;20444;-70
2021/05/18 13:08:30;;;;;;;9.60;4.93;;;19.50;72.10;;;;;;5084556;28;20897;-70
2021/05/18 13:11:10;;;;;;;10.97;5.40;;;19.50;72.20;;;;;;5085588;28;20426;-69
2021/05/18 13:13:48;;;;;;;11.60;5.10;;;19.50;72.80;;;;;;5085374;28;20434;-71
2021/05/18 13:16:18;;;;;;;9.13;4.80;;;19.60;72.10;;;;;;5083423;28;20438;-70
2021/05/18 13:18:54;;;;;;;8.85;4.72;;;19.70;70.10;;;;;;5083391;28;20516;-70
2021/05/18 13:21:24;;;;;;;11.27;5.43;;;19.70;69.60;;;;;;5086030;28;20506;-69
2021/05/18 13:24:01;;;;;;;7.75;4.60;;;19.70;69.20;;;;;;5066009;28;20414;-69
2021/05/18 13:26:29;;;;;;;;;;;19.90;70.20;;;;;;5082231;28;20376;-74
2021/05/18 13:29:00;;;;;;;10.48;5.22;;;19.70;71.90;;;;;;5082897;28;20058;-71
2021/05/18 13:31:27;;;;;;;12.05;4.35;;;19.60;72.50;;;;;;5083706;28;20290;-71
2021/05/18 13:33:54;;;;;;;12.00;4.50;;;19.60;73.10;;;;;;5086140;28;20194;-72
2021/05/18 13:36:20;;;;;;;10.82;4.15;;;19.60;73.50;;;;;;5066807;28;20228;-71
2021/05/18 13:38:47;;;;;;;10.25;4.57;;;19.60;73.80;;;;;;5090318;28;20234;-71
2021/05/18 13:41:13;;;;;;;10.50;4.65;;;19.70;73.50;;;;;;5090353;28;20238;-71
2021/05/18 13:43:41;;;;;;;10.55;4.55;;;19.70;73.50;;;;;;5089489;28;20206;-72
2021/05/18 13:46:08;;;;;;;;;;;19.90;73.60;;;;;;5090584;28;20685;-72
2021/05/18 13:48:34;;;;;;;10.48;4.35;;;20.10;73.80;;;;;;5089283;28;20055;-71
2021/05/18 13:51:00;;;;;;;9.43;4.05;;;20.30;73.20;;;;;;5090371;28;20677;-72
2021/05/18 13:53:27;;;;;;;9.63;3.90;;;20.60;72.90;;;;;;5090221;28;20921;-72
2021/05/18 13:55:53;;;;;;;6.60;3.63;;;20.80;71.60;;;;;;5071205;28;20205;-71
2021/05/18 13:58:20;;;;;;;8.02;2.97;;;21.00;69.90;;;;;;5088786;28;20713;-72
2021/05/18 14:00:47;;;;;;;6.18;2.90;;;21.20;69.20;;;;;;5090303;28;20554;-71
2021/05/18 14:03:13;;;;;;;7.30;2.70;;;21.40;68.20;;;;;;5086505;28;20625;-72
2021/05/18 14:05:40;;;;;;;5.85;2.70;;;21.60;66.50;;;;;;5089942;28;20669;-72
2021/05/18 14:08:23;;;;;;;;;;;21.80;65.50;;;;;;5090836;28;20102;-73
2021/05/18 14:10:55;;;;;;;5.25;2.83;;;21.90;64.70;;;;;;5090379;28;20184;-72
2021/05/18 14:13:23;;;;;;;6.97;3.10;;;22.10;64.00;;;;;;5088100;28;20210;-74
2021/05/18 14:15:51;;;;;;;7.60;3.33;;;22.20;63.30;;;;;;5088959;28;20660;-72
2021/05/18 14:18:17;;;;;;;9.10;3.20;;;22.40;62.80;;;;;;5089615;28;20250;-71
2021/05/18 14:20:45;;;;;;;10.27;2.58;;;22.50;62.30;;;;;;5089434;28;20290;-72
2021/05/18 14:23:12;;;;;;;4.90;2.40;;;22.70;61.50;;;;;;5089075;28;20206;-72
2021/05/18 14:25:39;;;;;;;6.22;2.55;;;22.90;60.30;;;;;;5090397;28;20281;-72
2021/05/18 14:28:06;;;;;;;4.55;2.67;;;23.10;59.30;;;;;;5090224;28;20539;-72
2021/05/18 14:30:33;;;;;;;4.05;2.17;;;23.30;58.70;;;;;;5088156;28;20278;-72
2021/05/18 14:33:00;;;;;;;5.25;2.42;;;23.50;57.90;;;;;;5088183;28;20721;-72
2021/05/18 14:35:28;;;;;;;5.70;2.65;;;23.80;56.60;;;;;;5088680;28;20232;-70
2021/05/18 14:37:59;;;;;;;6.40;3.05;;;23.80;56.00;;;;;;5071167;28;20235;-69
2021/05/18 14:40:41;;;;;;;5.32;2.60;;;23.80;55.80;;;;;;5089321;28;20202;-71
2021/05/18 14:43:27;;;;;;;4.60;2.65;;;23.80;56.50;;;;;;5087234;28;20621;-70
2021/05/18 14:45:58;;;;;;;7.20;2.70;;;24.00;56.70;;;;;;5088926;28;20249;-71
2021/05/18 14:54:16;;;;;;;5.82;2.30;;;24.80;55.30;;;;;;5005295;28;20203;-73
2021/05/18 14:56:43;;;;;;;8.57;2.55;;;25.20;53.80;;;;;;5087939;28;20209;-71
2021/05/18 14:59:10;;;;;;;8.25;2.22;;;25.50;52.70;;;;;;5089170;28;20208;-71
2021/05/18 15:01:36;;;;;;;5.57;2.53;;;25.80;51.00;;;;;;5085450;28;20194;-72
2021/05/18 15:04:04;;;;;;;6.10;2.40;;;26.00;49.90;;;;;;5070290;28;20205;-72
2021/05/18 15:06:31;;;;;;;7.72;2.40;;;26.20;49.10;;;;;;5088709;28;20265;-71
2021/05/18 15:08:57;;;;;;;4.43;2.38;;;26.30;48.30;;;;;;5071023;28;20212;-73
2021/05/18 15:11:24;;;;;;;6.78;2.30;;;26.40;47.30;;;;;;5087260;28;20225;-72
2021/05/18 15:13:50;;;;;;;5.03;2.10;;;26.40;47.10;;;;;;5087087;28;20197;-72
2021/05/18 15:16:17;;;;;;;4.60;2.40;;;26.60;46.80;;;;;;5070606;28;20256;-72
2021/05/18 15:18:45;;;;;;;5.82;2.08;;;26.80;46.00;;;;;;5088633;28;20440;-71
2021/05/18 15:21:12;;;;;;;7.40;2.25;;;27.00;45.50;;;;;;5069519;28;20193;-72
2021/05/18 15:23:40;;;;;;;19.08;2.83;;;27.20;44.50;;;;;;5089072;28;21755;-72
2021/05/18 15:26:07;;;;;;;6.35;2.22;;;27.20;43.70;;;;;;5070647;28;20205;-71
2021/05/18 15:28:33;;;;;;;6.60;2.10;;;27.20;43.30;;;;;;5087829;28;20195;-71
2021/05/18 15:31:00;;;;;;;4.90;2.00;;;27.20;43.00;;;;;;5083693;28;20217;-72
2021/05/18 15:33:27;;;;;;;9.40;2.47;;;27.20;42.70;;;;;;5079923;28;20205;-72
2021/05/18 15:35:54;;;;;;;7.80;3.20;;;27.10;42.90;;;;;;5087397;28;20193;-71
2021/05/18 15:38:21;;;;;;;5.88;2.55;;;27.10;43.80;;;;;;5091101;28;20692;-71
2021/05/18 15:40:48;;;;;;;8.05;2.50;;;27.10;43.30;;;;;;5091410;28;20196;-71
2021/05/18 15:43:14;;;;;;;5.20;2.63;;;27.20;43.20;;;;;;5093254;28;20238;-72
2021/05/18 15:45:40;;;;;;;7.75;2.38;;;27.30;42.90;;;;;;5092588;28;20200;-70
2021/05/18 15:48:07;;;;;;;5.25;2.70;;;27.30;42.20;;;;;;5072587;28;20216;-71
2021/05/18 15:50:33;;;;;;;5.80;2.88;;;27.20;42.50;;;;;;5088649;28;20228;-70
2021/05/18 15:53:00;;;;;;;5.43;2.63;;;27.30;42.60;;;;;;5082655;28;20574;-70
2021/05/18 15:55:27;;;;;;;5.53;2.83;;;27.50;42.30;;;;;;5079738;28;20676;-70
2021/05/18 15:57:54;;;;;;;5.95;2.42;;;27.50;42.10;;;;;;5078747;28;20197;-70
2021/05/18 16:00:22;;;;;;;5.78;2.60;;;27.70;41.80;;;;;;5082133;28;20595;-70
2021/05/18 16:02:49;;;;;;;4.63;2.80;;;27.80;41.10;;;;;;5062032;28;20198;-70
2021/05/18 16:05:15;;;;;;;5.72;3.25;;;27.90;41.00;;;;;;5084137;28;20193;-70
2021/05/18 16:07:44;;;;;;;5.68;3.08;;;27.90;41.00;;;;;;5073420;28;20679;-69
2021/05/18 16:10:11;;;;;;;7.50;2.90;;;28.00;41.00;;;;;;5091028;28;20251;-69
2021/05/18 16:12:38;;;;;;;5.85;2.70;;;28.10;40.40;;;;;;5092268;28;20817;-70
2021/05/18 16:15:06;;;;;;;8.18;3.33;;;28.20;40.30;;;;;;5091338;28;20239;-70
2021/05/18 16:17:33;;;;;;;7.00;3.15;;;28.20;39.80;;;;;;5089372;28;20258;-69
2021/05/18 16:19:59;;;;;;;4.97;2.65;;;28.20;39.80;;;;;;5092256;28;20629;-70
2021/05/18 16:22:25;;;;;;;5.45;3.05;;;28.20;39.60;;;;;;5089535;28;20201;-69
2021/05/18 16:24:52;;;;;;;7.22;3.08;;;28.20;39.40;;;;;;5092242;28;20621;-70
2021/05/18 16:27:18;;;;;;;5.93;3.10;;;28.20;39.60;;;;;;5089866;28;20201;-69
2021/05/18 16:29:45;;;;;;;6.10;3.63;;;28.20;39.70;;;;;;5089875;28;20231;-70
2021/05/18 16:32:12;;;;;;;6.97;3.13;;;28.30;39.60;;;;;;5091283;28;20685;-70
2021/05/18 16:34:40;;;;;;;4.35;2.97;;;28.30;39.40;;;;;;5091452;28;20346;-69
2021/05/18 16:37:06;;;;;;;5.95;3.40;;;28.30;39.00;;;;;;5088365;28;20599;-69
2021/05/18 16:39:33;;;;;;;6.40;2.90;;;28.30;38.90;;;;;;5088590;28;20254;-71
2021/05/18 16:41:59;;;;;;;7.57;3.08;;;28.40;38.80;;;;;;5070465;28;20243;-69
2021/05/18 16:44:26;;;;;;;4.18;2.53;;;28.50;38.40;;;;;;5086821;28;20193;-70
2021/05/18 16:46:53;;;;;;;3.60;2.22;;;28.50;38.10;;;;;;5088456;28;20197;-70
2021/05/18 16:49:19;;;;;;;5.38;2.28;;;28.50;37.60;;;;;;5088584;28;20656;-70
2021/05/18 16:51:47;;;;;;;4.60;2.40;;;28.10;37.40;;;;;;5090139;28;20217;-70
2021/05/18 16:54:16;;;;;;;4.07;2.25;;;27.60;37.50;;;;;;5090491;28;20204;-70
2021/05/18 16:56:42;;;;;;;;;;;26.90;37.90;;;;;;5087712;28;20048;-70